Malin Head, Ireland

4:21 PM GMT on January 22, 2017 (GMT +0000)
Carndonagh | | Change Station

Elev 33 ft 55.27 °N, 7.24 °W | Updated 1 second ago

Clear
Clear
39.4 °F
Feels Like 39 °F
N
2.7
Wind Variable Wind from SSE
Gusts 3.1 mph

Today
High -- | Low -- °F
--% Chance of Precip.
Yesterday
High -- | Low -- °F
Precip. -- in
Pressure 30.27 in
Visibility -9999.0 miles
Clouds
Windchill 39 °F
Dew Point 19 °F
Humidity 43%
Rainfall 0.00 in
Snow Depth Not available.
8:37 AM 4:44 PM
Waning Crescent, 25% visible
METAR EIDL 221600Z 16003KT CAVOK 06/00 Q1025
Pressure 30.27 in
Visibility -9999.0 miles
Clouds
Windchill 39 °F
Dew Point 19 °F
Humidity 43%
Rainfall 0.00 in
Snow Depth Not available.
8:37 AM 4:44 PM
Waning Crescent, 25% visible
METAR EIDL 221600Z 16003KT CAVOK 06/00 Q1025

Get Your Daily Forecast Email!

Thanks for signing up!

Be on the lookout for a verification email in your inbox.

You'll start receiving the daily forecast at 8 AM.

×

10-Day Weather Forecast

×

Almanac

Astronomy

Jan. 22, 2017 Rise Set
Actual Time
Civil Twilight
Nautical Twilight
Astronomical Twilight
Moon
Length of Visible Light
Length of Day
Tomorrow will be .
, % of the Moon is Illuminated

Today's Extremes

Country Highs Country Lows

Community

WunderPhotos

Upload Photos

1,962,540 photos uploaded!

WunderBlog® & News

Nearby

Air Quality

  Air Quality AQ Index Pollutant
Not available.

Snow Depth

Station Depth Elevation

Earthquake Activity

City Distance Mag. Time & Date
Minimum magnitude displayed is 2.5.

Coastal Water Temperatures

Place Temperature

Stations

Nearby Weather Stations

Station Location Temp. Windchill Dew Point Humidity Wind Precip. Elev Updated Type